To NAV CANADA Home Page Login to a new session Search on AWWS site Feedback and Comments Disclaimer Vers la page française équivalente Tips FAQ What's new on the site To the Forecasts and Observations / NOTAM section To "File a Flight Plan" website Publications and other links Update of the User's profile FIC Telephone Numbers My Weather Data Folder Route Weather Data Regional Weather Data Local Weather Data To the Forecasts and Observations / NOTAM section
Request Generated 04/30/2017 at 05:03:50 UTC . Weather information available at that time is displayed.

METAR/TAF

KELOWNA/BC    (show WxCam)

METAR CYLW 300500Z AUTO 17010KT 9SM -RA OVC055 11/03 A2997 RMK
SLP155=
METAR CYLW 300400Z AUTO 19011KT 160V220 9SM -RA OVC050 10/04 A2998
RMK SLP159=
SPECI CYLW 300321Z AUTO 18008G15KT 130V200 9SM -RA OVC055 11/03 A2997
RMK SLP159=
SPECI CYLW 300312Z AUTO 13012G19KT 9SM OVC060 11/02 A2997 RMK PRESRR
SLP157=
METAR CYLW 300300Z AUTO 12012G20KT 090V190 9SM -RA OVC060 10/03 A2996
RMK SLP154=

TAF CYLW 300038Z 3001/3013 20012G22KT P6SM BKN060 TEMPO 3001/3008
P6SM -SHRA BKN040
FM300800 18006KT P6SM BKN040
RMK FCST BASED ON AUTO OBS. NXT FCST BY 300700Z=
Your time UTC time
Weather data provided by Environment Canada and NAV CANADA